Terminal Aerodrome Forecast
Issued by NWS Twin Cities, MN

Home | Current Version | Previous Version | Text Only | Print | Product List | Glossary Off
Versions: 1 2 3 4 5 6 7 8 9 10 11 12 13 14 15 16 17 18 19

000
FTUS43 KMPX 270700 AAA
TAFEAU
TAF AMD
KEAU 270733Z 2708/2806 13004KT P6SM FEW200
      TEMPO 2711/2713 4SM BR
     FM271300 17009KT P6SM SCT050
     FM280000 18003KT P6SM FEW050=

USA.gov is the U.S. government's official web portal to all federal, state and local government web resources and services.